Aérodrome :
LOGIN :

S'inscrire | Disclaimer

   EN    FR    IT 

 










Légende :    VFR   VFR Marginal   IFR   IFR Intensif   IFR Très Intensif
Visi : 
Plafond : 
>= 8 km
>= 3000ft
5 à 8 km
1000 à 3000 ft
1500m à 5 km
500 à 1000 ft
800 à 1500m
200 à 500 ft
< 800m
< 200 ft
Symboles :   Orages  Brouillard  Fortes neiges  Fortes précipitations  Vent > 20 kt
SIGMETs :   Divers  Orages  Givrage  Turbulence  Onde Orograph.  Cendres Volcan.







- Altitude de l'aérodrome : 659 ft
- Code IATA : LYN
- Voir les cartes d'approche


LFLY - Lyon Bron

DERNIER METAR :
  • 220600Z AUTO 19002KT 1700 0900 R34/1300U BCFG FEW003 05/04 Q1022 TEMPO 0600 FG VV///

METARs EXPIRÉS :
  • 220530Z AUTO VRB02KT 3100 0600 R34/0700D BCFG FEW002 05/04 Q1022 TEMPO 0600 FG VV///
  • 220500Z AUTO 17002KT 2800 1000 R34/1200D BR VV/// 05/05 Q1022 TEMPO 4000 BR BKN005
  • 220430Z AUTO 00000KT 0750 0350 R34/0550U FG VV/// 05/05 Q1022 TEMPO 4000 BR BKN005
  • 220400Z AUTO 00000KT 3500 0600 R34/P2400 BCFG NSC 06/05 Q1022 TEMPO BKN005
  • 220330Z AUTO 14002KT 3200 BR NSC 07/06 Q1021 TEMPO BKN005
  • 220300Z AUTO 00000KT 4100 BR FEW047 07/06 Q1021 TEMPO BKN005

TAF TAF LFLY
Valide du 22 à 06h jusqu'au 23 à 06h UTC


220500Z 2206/2306 VRB03KT 4000 BR BKN020
PROB40
TEMPO 2206/2208 0600 FG VV///
BECMG 2209/2212 9999 BKN030
BECMG 2219/2222 CAVOK
BECMG 2303/2305 6000 NSC
ATIS : +33 4 72 15 87 96
Pas de NOTAMs connus pour ce terrain.



MET'MAP, la Météo Aéronautique d'un coup d'oeil ! - Copyright ORBIFLY Décembre 2007 - Disclaimer

ORBIFLY MET'MAP TEAM :

Programmation & Développement : Alexandra Zaïnal
Conception & Développement : Baudouin d'Aumeries
Co-Programmation & Développement : Marc-Olivier Méhu
Soutien technique & logistique : Manuel Goepfert

Contact : metmap@orbifly.com




SOURCES & CREDITS :

   NOAA